createdAt,value
2022-12-26T00:00:21.498Z,12.80
2022-12-26T00:02:48.088Z,12.68
2022-12-26T00:05:14.739Z,12.60
2022-12-26T00:07:41.319Z,12.55
2022-12-26T00:10:08.170Z,12.47
2022-12-26T00:12:35.347Z,12.35
2022-12-26T00:15:02.213Z,12.28
2022-12-26T00:17:28.736Z,12.21
2022-12-26T00:19:55.263Z,12.15
2022-12-26T00:22:21.831Z,12.21
2022-12-26T00:24:48.298Z,12.16
2022-12-26T00:27:14.833Z,12.08
2022-12-26T00:29:41.409Z,12.01
2022-12-26T00:32:07.941Z,11.98
2022-12-26T00:34:34.592Z,11.91
2022-12-26T00:37:01.081Z,11.92
2022-12-26T00:39:28.043Z,11.98
2022-12-26T00:41:54.807Z,11.94
2022-12-26T00:44:21.336Z,11.93
2022-12-26T00:46:47.911Z,12.03
2022-12-26T00:49:14.430Z,11.99
2022-12-26T00:51:40.912Z,12.00
2022-12-26T00:54:07.443Z,12.07
2022-12-26T00:56:33.942Z,11.92
2022-12-26T00:59:00.765Z,11.95
2022-12-26T01:01:30.972Z,11.97
2022-12-26T01:03:58.331Z,12.00
2022-12-26T01:06:25.015Z,11.94
2022-12-26T01:08:53.507Z,11.89
2022-12-26T01:11:38.619Z,11.93
2022-12-26T01:14:13.131Z,11.93
2022-12-26T01:16:40.144Z,11.99
2022-12-26T01:19:07.020Z,12.20
2022-12-26T01:21:34.503Z,12.19
2022-12-26T01:24:01.972Z,12.18
2022-12-26T01:26:28.497Z,12.25
2022-12-26T01:28:55.101Z,12.28
2022-12-26T01:31:22.660Z,12.24
2022-12-26T01:33:49.331Z,12.28
2022-12-26T01:36:17.163Z,12.33
2022-12-26T01:38:44.261Z,12.44
2022-12-26T01:41:17.281Z,12.49
2022-12-26T01:43:47.895Z,12.47
2022-12-26T01:46:16.459Z,12.57
2022-12-26T01:48:43.122Z,12.53
2022-12-26T01:51:09.909Z,12.56
2022-12-26T01:53:41.587Z,12.64
2022-12-26T01:56:15.336Z,12.64
2022-12-26T01:58:48.938Z,12.66
2022-12-26T02:01:15.969Z,12.66
2022-12-26T02:04:04.887Z,12.50
2022-12-26T02:06:32.784Z,12.50
2022-12-26T02:08:59.804Z,12.53
2022-12-26T02:11:36.305Z,12.63
2022-12-26T02:14:06.973Z,12.69
2022-12-26T02:16:36.336Z,12.60
2022-12-26T02:19:06.707Z,12.59
2022-12-26T02:21:33.300Z,12.54
2022-12-26T02:24:27.885Z,12.47
2022-12-26T02:27:21.638Z,12.52
2022-12-26T02:30:07.068Z,12.42
2022-12-26T02:33:12.964Z,12.35
2022-12-26T02:36:07.450Z,12.36
2022-12-26T02:38:45.526Z,12.38
2022-12-26T02:41:36.960Z,12.28
2022-12-26T02:44:34.924Z,12.27
2022-12-26T02:47:19.869Z,12.23
2022-12-26T02:50:13.880Z,12.16
2022-12-26T02:53:36.688Z,12.06
2022-12-26T02:56:33.511Z,12.08
2022-12-26T02:59:55.359Z,12.02
2022-12-26T03:02:42.760Z,11.96
2022-12-26T03:05:38.547Z,12.04
2022-12-26T03:08:27.880Z,11.94
2022-12-26T03:11:31.578Z,11.94
2022-12-26T03:14:10.783Z,12.01
2022-12-26T03:16:56.673Z,11.97
2022-12-26T03:19:25.802Z,12.01
2022-12-26T03:21:53.019Z,12.02
2022-12-26T03:24:22.434Z,11.96
2022-12-26T03:26:53.999Z,11.90
2022-12-26T03:29:41.487Z,11.85
2022-12-26T03:32:11.759Z,11.95
2022-12-26T03:34:42.675Z,11.82
2022-12-26T03:37:21.054Z,11.82
2022-12-26T03:40:12.318Z,11.84
2022-12-26T03:43:09.600Z,11.89
2022-12-26T03:46:00.750Z,11.92
2022-12-26T03:49:12.384Z,11.99
2022-12-26T03:52:23.294Z,12.01
2022-12-26T03:55:08.826Z,12.07
2022-12-26T03:58:10.078Z,12.05
2022-12-26T04:00:58.672Z,12.07
2022-12-26T04:03:46.342Z,12.03
2022-12-26T04:06:39.540Z,12.01
2022-12-26T04:09:50.539Z,11.97
2022-12-26T04:12:43.317Z,11.89
2022-12-26T04:15:54.863Z,11.89
2022-12-26T04:18:47.070Z,11.84
2022-12-26T04:21:41.087Z,11.90
2022-12-26T04:24:32.640Z,11.87
2022-12-26T04:27:22.315Z,11.85
2022-12-26T04:30:07.824Z,11.80
2022-12-26T04:33:01.293Z,11.86
2022-12-26T04:35:54.767Z,11.93
2022-12-26T04:38:45.806Z,11.83
2022-12-26T04:41:32.211Z,11.85
2022-12-26T04:44:12.566Z,11.80
2022-12-26T04:46:42.564Z,11.83
2022-12-26T04:49:30.205Z,11.87
2022-12-26T04:51:57.910Z,11.86
2022-12-26T04:54:25.174Z,11.83
2022-12-26T04:56:52.035Z,11.77
2022-12-26T04:59:19.486Z,11.80
2022-12-26T05:02:04.674Z,11.88
2022-12-26T05:04:50.102Z,11.77
2022-12-26T05:07:37.150Z,11.74
2022-12-26T05:10:05.942Z,11.71
2022-12-26T05:12:32.528Z,11.68
2022-12-26T05:14:59.075Z,11.67
2022-12-26T05:17:44.293Z,11.69
2022-12-26T05:20:31.394Z,11.63
2022-12-26T05:23:18.215Z,11.59
2022-12-26T05:26:04.900Z,11.64
2022-12-26T05:28:43.253Z,11.60
2022-12-26T05:31:16.280Z,11.70
2022-12-26T05:34:01.790Z,11.67
2022-12-26T05:36:31.996Z,11.66
2022-12-26T05:38:58.589Z,11.53
2022-12-26T05:41:25.140Z,11.49
2022-12-26T05:43:51.653Z,11.50
2022-12-26T05:46:18.270Z,11.52
2022-12-26T05:48:44.996Z,11.53
2022-12-26T05:51:11.643Z,11.43
2022-12-26T05:53:38.175Z,11.43
2022-12-26T05:56:11.946Z,11.36
2022-12-26T05:58:39.472Z,11.28
2022-12-26T06:01:11.830Z,11.27
2022-12-26T06:03:39.565Z,11.26
2022-12-26T06:06:07.054Z,11.19
2022-12-26T06:08:34.318Z,11.14
2022-12-26T06:11:05.002Z,11.15
2022-12-26T06:13:31.974Z,11.08
2022-12-26T06:15:58.816Z,11.06
2022-12-26T06:18:26.166Z,11.07
2022-12-26T06:20:52.832Z,11.17
2022-12-26T06:23:19.308Z,11.17
2022-12-26T06:25:53.611Z,11.23
2022-12-26T06:28:20.165Z,11.35
2022-12-26T06:30:47.025Z,11.49
2022-12-26T06:33:13.513Z,11.59
2022-12-26T06:35:40.031Z,11.79
2022-12-26T06:38:06.595Z,11.93
2022-12-26T06:40:33.108Z,11.97
2022-12-26T06:42:59.616Z,12.03
2022-12-26T06:45:26.729Z,12.07
2022-12-26T06:47:53.673Z,12.11
2022-12-26T06:50:22.984Z,12.13
2022-12-26T06:52:49.478Z,12.14
2022-12-26T06:55:16.053Z,12.26
2022-12-26T06:57:42.582Z,12.26
2022-12-26T07:00:10.461Z,12.30
2022-12-26T07:02:37.267Z,12.19
2022-12-26T07:05:04.193Z,12.12
2022-12-26T07:07:30.662Z,12.16
2022-12-26T07:09:57.220Z,12.12
2022-12-26T07:12:23.791Z,12.12
2022-12-26T07:14:50.669Z,12.25
2022-12-26T07:17:17.213Z,12.29
2022-12-26T07:19:43.703Z,12.38
2022-12-26T07:22:10.240Z,12.36
2022-12-26T07:24:37.351Z,12.33
2022-12-26T07:27:03.996Z,12.32
2022-12-26T07:29:30.540Z,12.31
2022-12-26T07:31:58.161Z,12.31
2022-12-26T07:34:31.076Z,12.25
2022-12-26T07:36:58.191Z,12.38
2022-12-26T07:39:24.960Z,12.41
2022-12-26T07:41:57.767Z,12.43
2022-12-26T07:44:28.862Z,12.51
2022-12-26T07:46:56.414Z,12.56
2022-12-26T07:49:23.548Z,12.47
2022-12-26T07:51:51.453Z,12.49
2022-12-26T07:54:18.842Z,12.54
2022-12-26T07:56:45.507Z,12.44
2022-12-26T07:59:16.665Z,12.55
2022-12-26T08:01:44.032Z,12.60
2022-12-26T08:04:11.852Z,12.46
2022-12-26T08:06:38.698Z,12.44
2022-12-26T08:09:05.382Z,12.37
2022-12-26T08:11:34.494Z,12.33
2022-12-26T08:14:01.631Z,12.35
2022-12-26T08:16:28.847Z,11.92
2022-12-26T08:18:55.399Z,11.73
2022-12-26T08:21:21.945Z,11.66
2022-12-26T08:23:48.627Z,11.55
2022-12-26T08:26:22.652Z,11.54
2022-12-26T08:28:51.256Z,11.38
2022-12-26T08:31:19.334Z,11.32
2022-12-26T08:33:46.047Z,11.22
2022-12-26T08:36:14.018Z,11.20
2022-12-26T08:38:40.981Z,11.30
2022-12-26T08:41:07.601Z,11.26
2022-12-26T08:44:03.588Z,11.13
2022-12-26T08:46:21.951Z,11.21
2022-12-26T08:48:49.768Z,11.29
2022-12-26T08:51:23.072Z,11.57
2022-12-26T08:53:50.979Z,11.12
2022-12-26T08:56:20.807Z,11.17
2022-12-26T08:58:48.037Z,11.24
2022-12-26T09:01:23.483Z,11.25
2022-12-26T09:03:58.810Z,11.53
2022-12-26T09:06:26.365Z,11.40
2022-12-26T09:08:53.724Z,11.36
2022-12-26T09:11:26.705Z,11.52
2022-12-26T09:13:55.057Z,11.76
2022-12-26T09:16:25.611Z,11.71
2022-12-26T09:19:02.138Z,11.55
2022-12-26T09:21:29.601Z,11.30
2022-12-26T09:23:58.274Z,11.27
2022-12-26T09:26:25.864Z,11.24
2022-12-26T09:28:53.509Z,11.30
2022-12-26T09:31:23.166Z,11.31
2022-12-26T09:33:50.098Z,11.34
2022-12-26T09:36:29.181Z,11.42
2022-12-26T09:38:57.619Z,11.43
2022-12-26T09:41:42.157Z,11.55
2022-12-26T09:44:14.729Z,11.55
2022-12-26T09:46:49.086Z,11.67
2022-12-26T09:49:21.921Z,11.75
2022-12-26T09:51:54.151Z,11.79
2022-12-26T09:54:47.651Z,11.79
2022-12-26T09:57:23.751Z,11.74
2022-12-26T09:59:56.592Z,11.74
2022-12-26T10:02:25.377Z,11.84
2022-12-26T10:04:53.899Z,11.94
2022-12-26T10:07:46.278Z,12.03
2022-12-26T10:10:16.487Z,12.10
2022-12-26T10:12:55.906Z,12.17
2022-12-26T10:15:25.339Z,12.09
2022-12-26T10:18:16.001Z,12.07
2022-12-26T10:21:13.218Z,12.11
2022-12-26T10:23:46.730Z,12.21
2022-12-26T10:26:20.268Z,12.28
2022-12-26T10:29:07.762Z,12.34
2022-12-26T10:31:43.243Z,12.34
2022-12-26T10:34:21.309Z,12.40
2022-12-26T10:37:14.913Z,12.47
2022-12-26T10:39:58.000Z,12.54
2022-12-26T10:42:27.436Z,12.64
2022-12-26T10:44:54.019Z,12.72
2022-12-26T10:47:32.750Z,12.81
2022-12-26T10:50:00.421Z,12.90
2022-12-26T10:52:37.084Z,13.10
2022-12-26T10:55:28.118Z,13.42
2022-12-26T10:57:53.202Z,13.63
2022-12-26T11:00:22.915Z,13.71
2022-12-26T11:03:04.240Z,13.88
2022-12-26T11:05:57.405Z,14.07
2022-12-26T11:08:20.777Z,14.22
2022-12-26T11:11:45.518Z,14.28
2022-12-26T11:14:33.699Z,14.43
2022-12-26T11:17:05.121Z,14.49
2022-12-26T11:19:36.200Z,14.62
2022-12-26T11:22:25.532Z,14.64
2022-12-26T11:25:15.075Z,14.61
2022-12-26T11:27:44.508Z,14.67
2022-12-26T11:30:14.022Z,14.61
2022-12-26T11:32:42.355Z,14.70
2022-12-26T11:35:21.820Z,14.64
2022-12-26T11:37:56.575Z,14.58
2022-12-26T11:40:32.841Z,14.67
2022-12-26T11:43:03.127Z,14.67
2022-12-26T11:45:37.032Z,14.59
2022-12-26T11:48:19.238Z,14.65
2022-12-26T11:50:46.729Z,14.78
2022-12-26T11:53:17.972Z,14.83
2022-12-26T11:55:45.215Z,14.92
2022-12-26T11:58:20.945Z,15.06
2022-12-26T12:00:50.267Z,15.18
2022-12-26T12:03:28.719Z,15.20
2022-12-26T12:06:07.713Z,15.36
2022-12-26T12:08:49.413Z,15.41
2022-12-26T12:11:27.565Z,15.51
2022-12-26T12:14:02.351Z,15.55
2022-12-26T12:16:56.831Z,15.52
2022-12-26T12:19:51.998Z,15.37
2022-12-26T12:22:25.399Z,15.50
2022-12-26T12:25:13.512Z,15.39
2022-12-26T12:27:47.929Z,15.41
2022-12-26T12:30:23.954Z,15.63
2022-12-26T12:33:05.882Z,15.77
2022-12-26T12:35:50.309Z,15.70
2022-12-26T12:38:54.860Z,15.64
2022-12-26T12:41:57.325Z,15.70
2022-12-26T12:44:54.048Z,15.60
2022-12-26T12:47:52.823Z,15.61
2022-12-26T12:50:39.987Z,15.56
2022-12-26T12:53:24.053Z,15.50
2022-12-26T12:55:56.334Z,15.52
2022-12-26T12:58:56.250Z,15.62
2022-12-26T13:01:33.243Z,15.64
2022-12-26T13:04:16.231Z,15.82
2022-12-26T13:07:08.949Z,15.87
2022-12-26T13:09:47.964Z,15.88
2022-12-26T13:12:24.897Z,15.76
2022-12-26T13:15:02.356Z,15.73
2022-12-26T13:17:41.105Z,15.73
2022-12-26T13:20:34.420Z,15.69
2022-12-26T13:23:32.809Z,15.61
2022-12-26T13:26:11.613Z,15.58
2022-12-26T13:28:47.656Z,15.46
2022-12-26T13:31:14.411Z,15.43
2022-12-26T13:33:43.026Z,15.38
2022-12-26T13:36:10.575Z,15.31
2022-12-26T13:38:58.600Z,15.29
2022-12-26T13:41:45.265Z,15.35
2022-12-26T13:44:20.796Z,15.33
2022-12-26T13:46:47.309Z,15.30
2022-12-26T13:49:40.012Z,15.33
2022-12-26T13:52:12.527Z,15.33
2022-12-26T13:54:48.265Z,15.43
2022-12-26T13:57:29.714Z,15.49
2022-12-26T14:00:23.589Z,15.59
2022-12-26T14:03:44.345Z,15.72
2022-12-26T14:06:35.142Z,15.73
2022-12-26T14:09:29.325Z,15.81
2022-12-26T14:11:58.714Z,15.81
2022-12-26T14:14:31.286Z,15.77
2022-12-26T14:17:06.884Z,15.79
2022-12-26T14:19:36.297Z,15.80
2022-12-26T14:22:27.691Z,15.86
2022-12-26T14:25:14.239Z,15.75
2022-12-26T14:28:29.910Z,15.77
2022-12-26T14:31:05.255Z,15.73
2022-12-26T14:34:16.511Z,15.76
2022-12-26T14:36:51.892Z,15.68
2022-12-26T14:39:52.635Z,15.68
2022-12-26T14:42:48.036Z,15.62
2022-12-26T14:45:34.974Z,15.67
2022-12-26T14:48:01.735Z,15.62
2022-12-26T14:50:49.421Z,15.59
2022-12-26T14:53:27.149Z,15.59
2022-12-26T14:56:01.624Z,15.59
2022-12-26T14:58:31.341Z,15.68
2022-12-26T15:01:37.835Z,15.68
2022-12-26T15:04:10.157Z,15.61
2022-12-26T15:06:58.376Z,15.66
2022-12-26T15:09:56.925Z,15.69
2022-12-26T15:12:41.980Z,15.64
2022-12-26T15:16:05.037Z,15.61
2022-12-26T15:18:43.487Z,15.55
2022-12-26T15:21:18.809Z,15.48
2022-12-26T15:24:00.569Z,15.48
2022-12-26T15:26:55.233Z,15.50
2022-12-26T15:29:46.454Z,15.51
2022-12-26T15:32:34.577Z,15.61
2022-12-26T15:35:39.596Z,15.65
2022-12-26T15:38:27.267Z,15.61
2022-12-26T15:41:08.614Z,15.54
2022-12-26T15:43:59.554Z,15.48
2022-12-26T15:46:29.104Z,15.36
2022-12-26T15:49:01.760Z,15.32
2022-12-26T15:52:01.586Z,15.26
2022-12-26T15:54:51.226Z,15.18
2022-12-26T15:57:36.474Z,15.12
2022-12-26T16:00:03.932Z,15.13
2022-12-26T16:02:40.941Z,15.14
2022-12-26T16:05:29.202Z,15.27
2022-12-26T16:08:10.780Z,15.37
2022-12-26T16:10:37.727Z,15.31
2022-12-26T16:13:13.348Z,15.24
2022-12-26T16:16:00.591Z,15.17
2022-12-26T16:18:30.869Z,15.20
2022-12-26T16:21:22.849Z,15.21
2022-12-26T16:23:52.095Z,15.14
2022-12-26T16:26:30.832Z,15.12
2022-12-26T16:29:00.213Z,15.09
2022-12-26T16:31:31.115Z,15.09
2022-12-26T16:33:59.163Z,14.98
2022-12-26T16:36:28.461Z,14.92
2022-12-26T16:38:55.922Z,14.82
2022-12-26T16:41:27.064Z,14.71
2022-12-26T16:43:55.680Z,14.66
2022-12-26T16:46:27.035Z,14.65
2022-12-26T16:48:57.153Z,14.62
2022-12-26T16:51:42.300Z,14.59
2022-12-26T16:54:21.360Z,14.64
2022-12-26T16:57:04.657Z,14.71
2022-12-26T16:59:40.212Z,14.78
2022-12-26T17:02:16.286Z,14.73
2022-12-26T17:04:55.490Z,14.65
2022-12-26T17:07:25.211Z,14.57
2022-12-26T17:09:57.471Z,14.60
2022-12-26T17:12:25.722Z,14.54
2022-12-26T17:14:54.342Z,14.47
2022-12-26T17:17:23.831Z,14.38
2022-12-26T17:19:57.646Z,14.34
2022-12-26T17:22:34.655Z,14.18
2022-12-26T17:25:29.527Z,14.25
2022-12-26T17:28:08.399Z,14.15
2022-12-26T17:30:39.279Z,14.13
2022-12-26T17:33:14.808Z,14.15
2022-12-26T17:36:38.263Z,14.11
2022-12-26T17:38:31.842Z,14.11
2022-12-26T17:41:02.828Z,13.95
2022-12-26T17:43:37.027Z,13.97
2022-12-26T17:46:05.225Z,13.86
2022-12-26T17:48:32.027Z,13.84
2022-12-26T17:51:01.673Z,13.86
2022-12-26T17:53:33.146Z,13.84
2022-12-26T17:56:02.209Z,13.90
2022-12-26T17:58:29.588Z,13.82
2022-12-26T18:00:56.394Z,13.67
2022-12-26T18:03:23.694Z,13.78
2022-12-26T18:05:50.511Z,13.69
2022-12-26T18:08:26.256Z,13.74
2022-12-26T18:10:53.159Z,13.76
2022-12-26T18:13:19.703Z,13.60
2022-12-26T18:15:46.778Z,13.68
2022-12-26T18:18:37.675Z,13.69
2022-12-26T18:21:06.506Z,13.54
2022-12-26T18:23:32.989Z,13.64
2022-12-26T18:26:02.180Z,13.67
2022-12-26T18:28:29.240Z,13.51
2022-12-26T18:30:57.967Z,13.60
2022-12-26T18:33:25.528Z,13.62
2022-12-26T18:35:52.455Z,13.69
2022-12-26T18:38:21.865Z,13.65
2022-12-26T18:40:53.380Z,13.57
2022-12-26T18:43:20.257Z,13.58
2022-12-26T18:45:46.797Z,13.32
2022-12-26T18:48:15.332Z,13.33
2022-12-26T18:50:42.805Z,13.29
2022-12-26T18:53:09.935Z,13.27
2022-12-26T18:55:36.779Z,13.38
2022-12-26T18:58:03.337Z,13.23
2022-12-26T19:00:30.483Z,13.26
2022-12-26T19:02:57.143Z,13.23
2022-12-26T19:05:27.380Z,13.32
2022-12-26T19:07:54.817Z,13.36
2022-12-26T19:10:26.619Z,13.45
2022-12-26T19:12:53.505Z,13.36
2022-12-26T19:15:20.315Z,13.47
2022-12-26T19:17:47.142Z,13.49
2022-12-26T19:20:22.116Z,13.35
2022-12-26T19:22:49.633Z,13.30
2022-12-26T19:25:16.884Z,13.36
2022-12-26T19:27:45.149Z,13.29
2022-12-26T19:30:12.497Z,13.27
2022-12-26T19:32:39.263Z,13.51
2022-12-26T19:35:06.792Z,13.45
2022-12-26T19:37:33.378Z,13.42
2022-12-26T19:40:00.375Z,13.25
2022-12-26T19:42:26.946Z,13.20
2022-12-26T19:44:53.522Z,13.28
2022-12-26T19:47:20.665Z,13.28
2022-12-26T19:49:47.213Z,13.46
2022-12-26T19:52:13.803Z,13.45
2022-12-26T19:54:40.335Z,13.40
2022-12-26T19:57:07.014Z,13.34
2022-12-26T19:59:33.572Z,13.40
2022-12-26T20:02:00.616Z,13.37
2022-12-26T20:04:27.412Z,13.33
2022-12-26T20:06:53.976Z,13.23
2022-12-26T20:09:20.493Z,13.18
2022-12-26T20:11:54.070Z,13.22
2022-12-26T20:14:22.170Z,13.21
2022-12-26T20:17:08.766Z,13.13
2022-12-26T20:19:36.539Z,13.16
2022-12-26T20:22:04.372Z,13.02
2022-12-26T20:24:31.257Z,13.12
2022-12-26T20:26:58.404Z,13.07
2022-12-26T20:29:25.048Z,13.19
2022-12-26T20:31:55.115Z,13.15
2022-12-26T20:34:22.043Z,13.15
2022-12-26T20:36:48.597Z,13.24
2022-12-26T20:39:18.111Z,13.07
2022-12-26T20:41:45.144Z,13.07
2022-12-26T20:44:16.251Z,12.94
2022-12-26T20:46:43.333Z,12.97
2022-12-26T20:49:10.528Z,12.91
2022-12-26T20:51:39.403Z,12.90
2022-12-26T20:54:07.603Z,12.87
2022-12-26T20:56:35.754Z,12.83
2022-12-26T20:59:03.709Z,12.78
2022-12-26T21:01:30.644Z,12.80
2022-12-26T21:03:58.621Z,12.74
2022-12-26T21:06:29.369Z,12.93
2022-12-26T21:08:57.663Z,12.86
2022-12-26T21:11:26.308Z,12.76
2022-12-26T21:13:59.545Z,12.78
2022-12-26T21:16:37.627Z,12.57
2022-12-26T21:19:10.912Z,12.56
2022-12-26T21:21:43.586Z,12.53
2022-12-26T21:24:16.294Z,12.77
2022-12-26T21:26:43.676Z,12.51
2022-12-26T21:29:25.476Z,12.63
2022-12-26T21:31:53.724Z,12.53
2022-12-26T21:34:22.328Z,12.38
2022-12-26T21:37:07.926Z,12.38
2022-12-26T21:39:37.031Z,12.36
2022-12-26T21:42:06.126Z,12.31
2022-12-26T21:44:32.850Z,12.50
2022-12-26T21:46:59.443Z,12.47
2022-12-26T21:49:26.117Z,12.44
2022-12-26T21:51:52.708Z,12.51
2022-12-26T21:54:42.191Z,12.35
2022-12-26T21:57:13.153Z,12.50
2022-12-26T21:59:58.103Z,12.34
2022-12-26T22:02:55.242Z,12.50
2022-12-26T22:05:24.863Z,12.60
2022-12-26T22:08:00.094Z,12.61
2022-12-26T22:10:48.524Z,12.61
2022-12-26T22:13:15.495Z,12.75
2022-12-26T22:16:05.715Z,12.67
2022-12-26T22:18:39.079Z,12.71
2022-12-26T22:21:14.838Z,12.55
2022-12-26T22:23:43.294Z,12.53
2022-12-26T22:26:12.129Z,12.55
2022-12-26T22:28:39.724Z,12.48
2022-12-26T22:31:07.025Z,12.55
2022-12-26T22:33:33.713Z,12.71
2022-12-26T22:36:07.533Z,12.72
2022-12-26T22:38:35.898Z,12.75
2022-12-26T22:41:03.102Z,12.70
2022-12-26T22:43:32.149Z,12.73
2022-12-26T22:45:59.000Z,12.60
2022-12-26T22:48:25.570Z,12.64
2022-12-26T22:50:54.899Z,12.63
2022-12-26T22:53:26.034Z,12.59
2022-12-26T22:55:57.739Z,12.64
2022-12-26T22:58:24.282Z,12.54
2022-12-26T23:00:50.885Z,12.55
2022-12-26T23:03:19.312Z,12.36
2022-12-26T23:05:46.970Z,12.41
2022-12-26T23:08:21.338Z,12.56
2022-12-26T23:10:48.892Z,12.62
2022-12-26T23:13:16.126Z,12.57
2022-12-26T23:16:09.359Z,12.34
2022-12-26T23:19:04.237Z,12.30
2022-12-26T23:21:39.744Z,12.34
2022-12-26T23:24:12.466Z,12.30
2022-12-26T23:26:41.591Z,12.46
2022-12-26T23:29:29.752Z,12.46
2022-12-26T23:31:56.472Z,12.41
2022-12-26T23:34:23.110Z,12.31
2022-12-26T23:36:49.618Z,12.49
2022-12-26T23:39:16.343Z,12.55
2022-12-26T23:41:43.564Z,12.55
2022-12-26T23:44:10.195Z,12.45
2022-12-26T23:46:36.888Z,12.47
2022-12-26T23:49:03.465Z,12.39
2022-12-26T23:51:30.004Z,12.25
2022-12-26T23:53:56.525Z,12.09
2022-12-26T23:56:23.284Z,12.04
2022-12-26T23:58:49.796Z,12.33
